createdAt,value
2019-06-15T00:00:37.884Z,17.70
2019-06-15T00:03:18.833Z,17.60
2019-06-15T00:05:59.880Z,17.50
2019-06-15T00:08:40.398Z,17.40
2019-06-15T00:11:21.208Z,17.40
2019-06-15T00:14:01.811Z,17.40
2019-06-15T00:16:42.541Z,17.40
2019-06-15T00:19:23.512Z,17.40
2019-06-15T00:22:03.947Z,17.40
2019-06-15T00:24:44.603Z,17.40
2019-06-15T00:27:25.108Z,17.50
2019-06-15T00:30:05.860Z,17.50
2019-06-15T00:32:46.295Z,17.40
2019-06-15T00:35:26.583Z,17.40
2019-06-15T00:38:07.345Z,17.40
2019-06-15T00:40:47.912Z,17.40
2019-06-15T00:43:28.652Z,17.30
2019-06-15T00:46:09.220Z,17.30
2019-06-15T00:48:50.127Z,17.30
2019-06-15T00:51:30.701Z,17.30
2019-06-15T00:54:11.228Z,17.30
2019-06-15T00:56:52.047Z,17.30
2019-06-15T00:59:32.647Z,17.20
2019-06-15T01:02:12.860Z,17.20
2019-06-15T01:04:53.632Z,17.20
2019-06-15T01:07:34.412Z,17.10
2019-06-15T01:10:14.932Z,17.00
2019-06-15T01:12:55.552Z,17.00
2019-06-15T01:15:36.254Z,17.00
2019-06-15T01:18:16.725Z,16.90
2019-06-15T01:20:57.053Z,16.90
2019-06-15T01:23:37.593Z,16.80
2019-06-15T01:26:18.262Z,16.80
2019-06-15T01:28:59.377Z,16.70
2019-06-15T01:31:40.728Z,16.70
2019-06-15T01:34:21.870Z,16.60
2019-06-15T01:37:02.996Z,16.50
2019-06-15T01:39:44.152Z,16.40
2019-06-15T01:42:24.596Z,16.20
2019-06-15T01:45:05.294Z,16.20
2019-06-15T01:47:45.841Z,16.10
2019-06-15T01:50:26.553Z,16.00
2019-06-15T01:55:51.082Z,15.90
2019-06-15T01:58:32.328Z,16.00
2019-06-15T02:01:13.585Z,15.90
2019-06-15T02:03:54.104Z,15.90
2019-06-15T02:06:35.144Z,15.90
2019-06-15T02:09:15.696Z,15.90
2019-06-15T02:11:56.352Z,15.90
2019-06-15T02:14:36.622Z,15.90
2019-06-15T02:17:17.477Z,15.80
2019-06-15T02:19:58.110Z,15.80
2019-06-15T02:22:38.556Z,15.80
2019-06-15T02:25:19.218Z,15.80
2019-06-15T02:27:59.918Z,15.80
2019-06-15T02:30:40.405Z,15.80
2019-06-15T02:33:21.105Z,15.90
2019-06-15T02:36:01.399Z,15.90
2019-06-15T02:38:41.713Z,15.90
2019-06-15T02:41:22.942Z,15.90
2019-06-15T02:44:03.537Z,15.90
2019-06-15T02:46:44.281Z,15.90
2019-06-15T02:49:25.317Z,15.80
2019-06-15T02:52:05.977Z,15.80
2019-06-15T02:54:46.773Z,15.80
2019-06-15T02:57:27.688Z,15.80
2019-06-15T03:00:08.698Z,15.90
2019-06-15T03:02:49.385Z,15.90
2019-06-15T03:05:29.673Z,15.90
2019-06-15T03:08:10.018Z,16.00
2019-06-15T03:10:50.512Z,16.00
2019-06-15T03:13:31.205Z,16.10
2019-06-15T03:16:11.982Z,16.10
2019-06-15T03:18:52.865Z,16.20
2019-06-15T03:21:33.993Z,16.20
2019-06-15T03:24:14.137Z,16.20
2019-06-15T03:26:55.123Z,16.20
2019-06-15T03:29:36.073Z,16.10
2019-06-15T03:32:16.774Z,16.00
2019-06-15T03:34:57.428Z,16.00
2019-06-15T03:37:38.180Z,15.90
2019-06-15T03:40:18.610Z,15.80
2019-06-15T03:42:59.148Z,15.80
2019-06-15T03:45:39.781Z,15.90
2019-06-15T03:48:20.175Z,15.90
2019-06-15T03:51:00.985Z,16.00
2019-06-15T03:53:41.481Z,16.00
2019-06-15T03:56:22.419Z,16.00
2019-06-15T03:59:03.710Z,16.10
2019-06-15T04:01:44.229Z,16.10
2019-06-15T04:04:25.196Z,16.10
2019-06-15T04:07:05.769Z,16.10
2019-06-15T04:09:46.299Z,16.10
2019-06-15T04:12:27.061Z,16.10
2019-06-15T04:15:07.175Z,16.20
2019-06-15T04:17:47.775Z,16.20
2019-06-15T04:20:28.357Z,16.20
2019-06-15T04:23:08.785Z,16.30
2019-06-15T04:25:49.365Z,16.30
2019-06-15T04:28:30.196Z,16.30
2019-06-15T04:31:11.076Z,16.40
2019-06-15T04:33:52.128Z,16.50
2019-06-15T04:36:33.060Z,16.50
2019-06-15T04:39:13.737Z,16.60
2019-06-15T04:41:54.152Z,16.80
2019-06-15T04:44:34.777Z,16.90
2019-06-15T04:47:15.268Z,17.00
2019-06-15T04:49:56.081Z,17.10
2019-06-15T04:52:36.592Z,17.20
2019-06-15T04:55:17.063Z,17.50
2019-06-15T04:57:57.697Z,17.60
2019-06-15T05:00:38.432Z,17.70
2019-06-15T05:03:18.845Z,17.70
2019-06-15T05:05:59.772Z,17.80
2019-06-15T05:08:40.752Z,17.90
2019-06-15T05:11:21.543Z,18.20
2019-06-15T05:14:02.364Z,18.40
2019-06-15T05:16:42.847Z,18.60
2019-06-15T05:19:23.720Z,18.80
2019-06-15T05:22:04.012Z,18.90
2019-06-15T05:24:44.840Z,19.00
2019-06-15T05:27:25.388Z,19.10
2019-06-15T05:30:06.090Z,19.10
2019-06-15T05:32:46.933Z,19.10
2019-06-15T05:35:27.545Z,19.00
2019-06-15T05:38:08.076Z,19.00
2019-06-15T05:40:48.685Z,18.90
2019-06-15T05:43:29.668Z,18.90
2019-06-15T05:46:10.213Z,18.90
2019-06-15T05:48:51.183Z,18.90
2019-06-15T05:51:31.411Z,19.00
2019-06-15T05:54:11.892Z,19.10
2019-06-15T05:56:52.425Z,19.10
2019-06-15T05:59:32.659Z,19.20
2019-06-15T06:02:13.271Z,19.20
2019-06-15T06:04:53.889Z,19.20
2019-06-15T06:07:34.631Z,19.30
2019-06-15T06:10:15.299Z,19.30
2019-06-15T06:12:55.988Z,19.40
2019-06-15T06:15:36.692Z,19.70
2019-06-15T06:18:17.237Z,20.00
2019-06-15T06:20:57.540Z,20.50
2019-06-15T06:23:38.032Z,21.00
2019-06-15T06:26:18.465Z,21.80
2019-06-15T06:28:58.678Z,21.90
2019-06-15T06:31:39.494Z,21.90
2019-06-15T06:34:20.572Z,22.60
2019-06-15T06:37:01.293Z,23.40
2019-06-15T06:39:41.875Z,24.20
2019-06-15T06:42:22.524Z,25.00
2019-06-15T06:45:03.061Z,25.90
2019-06-15T06:47:43.624Z,26.40
2019-06-15T06:50:24.425Z,26.60
2019-06-15T06:53:05.082Z,26.60
2019-06-15T06:55:45.361Z,26.90
2019-06-15T06:58:26.233Z,26.90
2019-06-15T07:01:06.926Z,26.50
2019-06-15T07:03:47.289Z,26.40
2019-06-15T07:06:28.157Z,26.30
2019-06-15T07:09:08.616Z,26.40
2019-06-15T07:11:49.035Z,26.20
2019-06-15T07:14:29.779Z,26.20
2019-06-15T07:17:10.428Z,25.70
2019-06-15T07:19:50.776Z,25.40
2019-06-15T07:22:31.613Z,25.10
2019-06-15T07:25:12.222Z,24.80
2019-06-15T07:28:07.157Z,24.40
2019-06-15T07:30:36.253Z,24.40
2019-06-15T07:33:17.097Z,24.50
2019-06-15T07:35:57.549Z,24.60
2019-06-15T07:38:38.118Z,24.60
2019-06-15T07:41:18.695Z,24.80
2019-06-15T07:43:59.032Z,24.60
2019-06-15T07:46:39.471Z,24.30
2019-06-15T07:49:20.548Z,23.90
2019-06-15T07:52:01.021Z,23.60
2019-06-15T07:54:42.030Z,23.40
2019-06-15T07:57:25.340Z,23.30
2019-06-15T08:00:06.046Z,23.70
2019-06-15T08:02:46.543Z,24.00
2019-06-15T08:05:27.375Z,24.40
2019-06-15T08:08:08.244Z,24.60
2019-06-15T08:10:48.642Z,24.70
2019-06-15T08:13:29.270Z,24.70
2019-06-15T08:16:10.356Z,24.60
2019-06-15T08:18:50.937Z,24.70
2019-06-15T08:21:31.410Z,24.60
2019-06-15T08:24:11.785Z,24.50
2019-06-15T08:26:52.367Z,24.50
2019-06-15T08:29:32.986Z,24.50
2019-06-15T08:32:13.505Z,24.30
2019-06-15T08:34:53.849Z,24.00
2019-06-15T08:37:34.385Z,24.20
2019-06-15T08:40:14.995Z,24.80
2019-06-15T08:42:55.780Z,25.40
2019-06-15T08:45:36.513Z,25.60
2019-06-15T08:48:16.748Z,26.00
2019-06-15T08:50:57.715Z,26.20
2019-06-15T08:53:37.898Z,25.80
2019-06-15T08:56:18.579Z,25.50
2019-06-15T08:58:59.068Z,25.50
2019-06-15T09:01:39.864Z,25.80
2019-06-15T09:04:20.552Z,26.10
2019-06-15T09:07:00.797Z,26.30
2019-06-15T09:09:41.364Z,26.30
2019-06-15T09:12:24.960Z,26.30
2019-06-15T09:15:04.873Z,26.30
2019-06-15T09:17:45.428Z,26.40
2019-06-15T09:20:26.176Z,26.60
2019-06-15T09:23:07.129Z,26.70
2019-06-15T09:25:47.536Z,26.30
2019-06-15T09:28:28.112Z,25.90
2019-06-15T09:31:09.278Z,25.60
2019-06-15T09:33:50.133Z,25.50
2019-06-15T09:36:30.720Z,25.40
2019-06-15T09:39:14.408Z,25.60
2019-06-15T09:41:53.794Z,25.80
2019-06-15T09:44:34.104Z,25.90
2019-06-15T09:47:14.604Z,25.90
2019-06-15T09:49:55.396Z,26.00
2019-06-15T09:52:35.976Z,26.40
2019-06-15T09:55:16.569Z,27.00
2019-06-15T09:57:57.893Z,27.30
2019-06-15T10:00:38.336Z,27.30
2019-06-15T10:03:19.462Z,27.20
2019-06-15T10:06:00.476Z,27.00
2019-06-15T10:08:41.009Z,27.00
2019-06-15T10:11:21.559Z,26.80
2019-06-15T10:14:02.431Z,26.70
2019-06-15T10:16:43.152Z,26.60
2019-06-15T10:19:23.591Z,26.90
2019-06-15T10:22:04.188Z,27.20
2019-06-15T10:24:45.089Z,27.10
2019-06-15T10:27:25.481Z,27.00
2019-06-15T10:30:06.582Z,26.90
2019-06-15T10:32:47.110Z,26.90
2019-06-15T10:35:27.749Z,26.80
2019-06-15T10:38:08.554Z,26.50
2019-06-15T10:40:49.209Z,26.30
2019-06-15T10:43:29.583Z,26.00
2019-06-15T10:46:10.164Z,25.80
2019-06-15T10:48:50.958Z,25.60
2019-06-15T10:51:31.852Z,25.30
2019-06-15T10:54:12.621Z,24.90
2019-06-15T10:56:53.084Z,24.80
2019-06-15T10:59:33.728Z,24.50
2019-06-15T11:02:14.238Z,24.60
2019-06-15T11:04:54.816Z,24.90
2019-06-15T11:07:35.084Z,25.10
2019-06-15T11:10:15.928Z,25.30
2019-06-15T11:12:56.554Z,25.40
2019-06-15T11:15:37.376Z,25.60
2019-06-15T11:24:22.294Z,27.20
2019-06-15T11:27:02.638Z,27.10
2019-06-15T11:29:43.122Z,26.80
2019-06-15T11:32:23.717Z,27.10
2019-06-15T11:35:05.084Z,27.90
2019-06-15T11:37:45.271Z,28.30
2019-06-15T11:40:25.882Z,28.60
2019-06-15T11:43:06.450Z,28.80
2019-06-15T11:45:47.389Z,29.00
2019-06-15T11:48:27.704Z,29.20
2019-06-15T11:51:08.457Z,29.40
2019-06-15T11:53:49.118Z,29.30
2019-06-15T11:56:29.620Z,28.90
2019-06-15T11:59:08.486Z,28.40
2019-06-15T12:01:56.212Z,28.20
2019-06-15T12:04:57.674Z,28.40
2019-06-15T12:07:34.458Z,28.90
2019-06-15T12:10:22.852Z,29.40
2019-06-15T12:13:10.582Z,29.50
2019-06-15T12:15:51.232Z,29.30
2019-06-15T12:18:31.575Z,29.40
2019-06-15T12:21:12.355Z,29.50
2019-06-15T12:23:53.093Z,29.20
2019-06-15T12:26:34.499Z,28.90
2019-06-15T12:29:14.959Z,28.90
2019-06-15T12:31:55.453Z,29.20
2019-06-15T12:34:36.359Z,29.30
2019-06-15T12:37:16.845Z,29.40
2019-06-15T12:39:57.820Z,29.40
2019-06-15T12:42:38.679Z,29.00
2019-06-15T12:45:19.446Z,28.90
2019-06-15T12:48:00.474Z,29.00
2019-06-15T12:50:41.144Z,28.90
2019-06-15T12:53:21.488Z,29.10
2019-06-15T12:56:02.716Z,29.40
2019-06-15T12:58:43.008Z,29.50
2019-06-15T13:01:23.314Z,29.60
2019-06-15T13:04:03.744Z,29.60
2019-06-15T13:06:44.364Z,29.60
2019-06-15T13:09:25.057Z,29.60
2019-06-15T13:12:05.269Z,30.00
2019-06-15T13:14:46.558Z,30.20
2019-06-15T13:17:26.915Z,30.10
2019-06-15T13:22:51.912Z,30.10
2019-06-15T13:25:32.636Z,30.00
2019-06-15T13:28:13.364Z,30.20
2019-06-15T13:30:54.553Z,30.30
2019-06-15T13:33:35.139Z,30.30
2019-06-15T13:36:16.028Z,29.80
2019-06-15T13:38:57.392Z,29.80
2019-06-15T13:41:38.540Z,29.80
2019-06-15T13:44:19.237Z,29.90
2019-06-15T13:47:00.561Z,30.00
2019-06-15T13:49:40.776Z,30.10
2019-06-15T13:52:21.141Z,30.30
2019-06-15T13:55:01.601Z,30.20
2019-06-15T13:57:42.050Z,30.30
2019-06-15T14:00:22.250Z,30.30
2019-06-15T14:03:03.072Z,30.40
2019-06-15T14:05:44.003Z,30.50
2019-06-15T14:08:25.075Z,30.50
2019-06-15T14:11:05.480Z,30.50
2019-06-15T14:13:46.140Z,30.50
2019-06-15T14:16:26.958Z,30.50
2019-06-15T14:19:09.136Z,30.60
2019-06-15T14:21:50.309Z,30.80
2019-06-15T14:24:31.123Z,30.80
2019-06-15T14:27:11.527Z,30.80
2019-06-15T14:29:52.727Z,30.60
2019-06-15T14:32:33.873Z,30.70
2019-06-15T14:35:14.494Z,30.70
2019-06-15T14:37:55.015Z,30.50
2019-06-15T14:40:36.173Z,30.50
2019-06-15T14:43:16.669Z,30.50
2019-06-15T14:45:59.805Z,30.50
2019-06-15T14:48:39.864Z,30.40
2019-06-15T14:51:20.968Z,30.30
2019-06-15T14:54:01.421Z,30.40
2019-06-15T14:56:42.214Z,30.30
2019-06-15T14:59:22.986Z,30.30
2019-06-15T15:02:09.953Z,30.30
2019-06-15T15:04:46.633Z,30.50
2019-06-15T15:07:27.036Z,30.60
2019-06-15T15:10:08.836Z,30.30
2019-06-15T15:12:49.859Z,30.30
2019-06-15T15:15:30.919Z,30.30
2019-06-15T15:18:11.623Z,30.30
2019-06-15T15:20:52.644Z,30.20
2019-06-15T15:23:35.726Z,30.00
2019-06-15T15:26:17.148Z,29.30
2019-06-15T15:28:58.077Z,29.10
2019-06-15T15:31:38.300Z,28.80
2019-06-15T15:34:19.132Z,28.70
2019-06-15T15:36:59.857Z,28.90
2019-06-15T15:39:40.577Z,29.20
2019-06-15T15:42:20.998Z,29.30
2019-06-15T15:45:01.684Z,29.60
2019-06-15T15:47:42.169Z,29.70
2019-06-15T15:50:23.013Z,29.70
2019-06-15T15:53:03.576Z,29.90
2019-06-15T15:55:46.614Z,30.00
2019-06-15T15:58:27.201Z,30.20
2019-06-15T16:01:08.610Z,30.30
2019-06-15T16:03:49.277Z,30.20
2019-06-15T16:06:29.825Z,30.00
2019-06-15T16:09:10.577Z,29.90
2019-06-15T16:11:51.185Z,29.90
2019-06-15T16:14:32.156Z,30.00
2019-06-15T16:17:12.961Z,29.80
2019-06-15T16:19:53.409Z,29.60
2019-06-15T16:22:36.863Z,29.50
2019-06-15T16:25:16.366Z,29.30
2019-06-15T16:27:56.790Z,29.00
2019-06-15T16:31:00.610Z,28.70
2019-06-15T16:33:19.676Z,28.50
2019-06-15T16:36:00.540Z,28.40
2019-06-15T16:38:41.154Z,28.40
2019-06-15T16:41:21.748Z,28.40
2019-06-15T16:44:02.325Z,28.40
2019-06-15T16:46:43.014Z,28.40
2019-06-15T16:49:23.824Z,28.40
2019-06-15T16:52:06.170Z,28.40
2019-06-15T16:54:47.392Z,28.50
2019-06-15T16:57:28.268Z,28.40
2019-06-15T17:00:08.640Z,28.30
2019-06-15T17:02:49.446Z,28.20
2019-06-15T17:05:30.149Z,28.10
2019-06-15T17:08:10.814Z,28.00
2019-06-15T17:10:51.698Z,27.90
2019-06-15T17:13:32.184Z,27.80
2019-06-15T17:16:13.261Z,27.80
2019-06-15T17:18:56.072Z,27.80
2019-06-15T17:21:37.245Z,27.70
2019-06-15T17:24:18.610Z,27.60
2019-06-15T17:26:59.136Z,27.50
2019-06-15T17:29:39.826Z,27.40
2019-06-15T17:32:20.657Z,27.40
2019-06-15T17:35:01.464Z,27.40
2019-06-15T17:37:42.160Z,27.30
2019-06-15T17:40:22.896Z,27.20
2019-06-15T17:43:03.776Z,27.00
2019-06-15T17:45:46.544Z,26.80
2019-06-15T17:48:26.676Z,26.60
2019-06-15T17:51:07.163Z,26.40
2019-06-15T17:53:47.945Z,26.30
2019-06-15T17:56:28.652Z,26.20
2019-06-15T17:59:09.184Z,26.10
2019-06-15T18:01:49.892Z,26.00
2019-06-15T18:04:30.395Z,25.90
2019-06-15T18:07:11.212Z,25.80
2019-06-15T18:09:51.833Z,25.70
2019-06-15T18:12:32.296Z,25.60
2019-06-15T18:15:13.244Z,25.50
2019-06-15T18:17:53.870Z,25.30
2019-06-15T18:20:36.406Z,24.60
2019-06-15T18:23:17.736Z,24.90
2019-06-15T18:25:58.738Z,24.80
2019-06-15T18:28:39.309Z,24.60
2019-06-15T18:31:19.924Z,24.60
2019-06-15T18:34:09.446Z,24.40
2019-06-15T18:36:42.764Z,24.30
2019-06-15T18:39:26.251Z,24.30
2019-06-15T18:42:07.749Z,24.20
2019-06-15T18:44:48.360Z,24.10
2019-06-15T18:47:29.036Z,24.00
2019-06-15T18:50:10.118Z,23.90
2019-06-15T18:52:50.326Z,23.80
2019-06-15T18:55:30.988Z,23.70
2019-06-15T18:58:11.409Z,23.60
2019-06-15T19:00:52.209Z,23.50
2019-06-15T19:03:32.820Z,23.40
2019-06-15T19:06:13.591Z,23.30
2019-06-15T19:08:53.844Z,23.20
2019-06-15T19:11:34.524Z,23.10
2019-06-15T19:14:16.602Z,23.10
2019-06-15T19:16:57.969Z,22.90
2019-06-15T19:19:38.616Z,22.80
2019-06-15T19:22:19.085Z,22.60
2019-06-15T19:24:59.647Z,22.50
2019-06-15T19:27:40.122Z,22.40
2019-06-15T19:30:20.718Z,22.30
2019-06-15T19:33:01.645Z,22.20
2019-06-15T19:35:42.473Z,22.10
2019-06-15T19:38:23.080Z,22.00
2019-06-15T19:41:03.745Z,21.80
2019-06-15T19:43:46.775Z,21.60
2019-06-15T19:46:27.408Z,21.50
2019-06-15T19:49:08.569Z,21.40
2019-06-15T19:51:49.513Z,21.30
2019-06-15T19:54:29.684Z,21.20
2019-06-15T19:57:09.931Z,21.10
2019-06-15T19:59:50.392Z,21.00
2019-06-15T20:02:30.604Z,20.90
2019-06-15T20:05:11.308Z,20.80
2019-06-15T20:07:52.230Z,20.70
2019-06-15T20:10:32.673Z,20.60
2019-06-15T20:13:13.505Z,20.60
2019-06-15T20:15:54.088Z,20.50
2019-06-15T20:18:32.702Z,20.40
2019-06-15T20:21:20.709Z,20.30
2019-06-15T20:24:08.436Z,20.20
2019-06-15T20:26:58.399Z,20.10
2019-06-15T20:29:47.542Z,20.00
2019-06-15T20:32:36.887Z,19.90
2019-06-15T20:35:26.317Z,19.80
2019-06-15T20:38:16.063Z,19.70
2019-06-15T20:41:07.294Z,19.60
2019-06-15T20:43:56.631Z,19.50
2019-06-15T20:46:46.318Z,19.40
2019-06-15T20:49:33.461Z,19.30
2019-06-15T20:52:21.513Z,19.20
2019-06-15T20:55:09.495Z,19.20
2019-06-15T20:57:57.508Z,19.10
2019-06-15T21:00:47.677Z,19.00
2019-06-15T21:03:36.754Z,19.00
2019-06-15T21:06:26.024Z,18.90
2019-06-15T21:09:16.387Z,18.80
2019-06-15T21:12:06.405Z,18.80
2019-06-15T21:14:56.187Z,18.70
2019-06-15T21:17:37.130Z,18.60
2019-06-15T21:20:18.060Z,18.50
2019-06-15T21:22:58.909Z,18.50
2019-06-15T21:25:39.710Z,18.40
2019-06-15T21:28:20.391Z,18.30
2019-06-15T21:31:01.127Z,18.30
2019-06-15T21:33:41.672Z,18.30
2019-06-15T21:36:22.089Z,18.20
2019-06-15T21:39:02.381Z,18.20
2019-06-15T21:41:43.156Z,18.20
2019-06-15T21:44:26.369Z,18.20
2019-06-15T21:47:06.907Z,18.10
2019-06-15T21:49:48.205Z,18.10
2019-06-15T21:52:29.289Z,18.10
2019-06-15T21:55:09.879Z,18.10
2019-06-15T21:57:50.093Z,18.00
2019-06-15T22:00:51.340Z,18.00
2019-06-15T22:03:32.269Z,17.90
2019-06-15T22:06:12.938Z,17.90
2019-06-15T22:08:54.069Z,17.90
2019-06-15T22:11:36.223Z,17.90
2019-06-15T22:14:17.237Z,17.90
2019-06-15T22:16:58.719Z,17.90
2019-06-15T22:19:38.975Z,17.90
2019-06-15T22:22:19.676Z,17.90
2019-06-15T22:25:00.068Z,17.90
2019-06-15T22:27:40.445Z,17.90
2019-06-15T22:30:20.912Z,17.80
2019-06-15T22:33:01.509Z,17.80
2019-06-15T22:35:41.971Z,17.80
2019-06-15T22:38:22.613Z,17.80
2019-06-15T22:41:02.775Z,17.90
2019-06-15T22:43:45.993Z,17.90
2019-06-15T22:46:26.367Z,17.90
2019-06-15T22:49:07.388Z,18.00
2019-06-15T22:51:47.835Z,17.90
2019-06-15T22:54:29.038Z,17.90
2019-06-15T22:57:09.600Z,17.90
2019-06-15T22:59:50.289Z,17.80
2019-06-15T23:02:30.617Z,17.80
2019-06-15T23:05:11.548Z,17.80
2019-06-15T23:07:52.192Z,17.70
2019-06-15T23:10:32.636Z,17.70
2019-06-15T23:13:15.917Z,17.70
2019-06-15T23:15:56.593Z,17.70
2019-06-15T23:18:37.417Z,17.70
2019-06-15T23:21:18.456Z,17.70
2019-06-15T23:23:59.185Z,17.70
2019-06-15T23:26:40.208Z,17.70
2019-06-15T23:29:21.356Z,17.80
2019-06-15T23:32:02.081Z,17.80
2019-06-15T23:34:42.524Z,17.80
2019-06-15T23:37:23.125Z,17.80
2019-06-15T23:43:08.015Z,17.70
2019-06-15T23:45:48.344Z,17.80
2019-06-15T23:48:28.600Z,17.80
2019-06-15T23:51:08.884Z,17.70
2019-06-15T23:53:49.416Z,17.70
2019-06-15T23:56:29.937Z,17.60
2019-06-15T23:59:11.111Z,17.50
